Time;durP1;ratioP1;P1;durP2;ratioP2;P2;SDS_P1;SDS_P2;PMS_P1;PMS_P2;Temp;Humidity;BMP_temperature;BMP_pressure;BME280_temperature;BME280_humidity;BME280_pressure;Samples;Min_cycle;Max_cycle;Signal;HPM_P1;HPM_P2
2021/11/18 00:00:11;;;;;;;;;0.75;0.75;;;;;9.61;72.16;102597.47;5066392;28;47312;-83
2021/11/18 00:02:37;;;;;;;;;1.00;1.00;;;;;9.42;71.85;102562.91;5082519;28;45290;-83
2021/11/18 00:05:03;;;;;;;;;3.00;1.50;;;;;9.75;72.29;102621.47;5083288;28;45285;-83
2021/11/18 00:07:29;;;;;;;;;1.00;1.00;;;;;9.67;72.17;102600.34;5084476;28;45506;-82
2021/11/18 00:09:55;;;;;;;;;0.25;0.25;;;;;9.58;71.91;102592.13;5083928;28;46351;-83
2021/11/18 00:12:20;;;;;;;;;3.75;3.25;;;;;9.55;72.10;102590.31;5084710;28;45271;-83
2021/11/18 00:14:45;;;;;;;;;1.00;1.00;;;;;9.35;72.10;102553.94;5065866;28;45616;-83
2021/11/18 00:17:11;;;;;;;;;2.75;1.50;;;;;9.66;72.03;102615.88;5083568;28;45216;-83
2021/11/18 00:19:36;;;;;;;;;1.00;1.00;;;;;9.65;72.30;102620.22;5064588;28;47076;-84
2021/11/18 00:22:02;;;;;;;;;1.25;1.25;;;;;9.65;72.28;102619.31;5084672;28;45289;-83
2021/11/18 00:24:27;;;;;;;;;2.25;1.00;;;;;9.56;71.88;102605.06;5084866;28;45369;-83
2021/11/18 00:26:54;;;;;;;;;0.00;0.00;;;;;9.63;72.17;102614.94;5077282;27;45464;-83
2021/11/18 00:29:21;;;;;;;;;0.00;0.00;;;;;9.41;72.31;102573.22;5076135;28;46149;-84
2021/11/18 00:31:47;;;;;;;;;0.50;0.50;;;;;9.56;72.06;102599.88;5083704;28;45390;-83
2021/11/18 00:34:13;;;;;;;;;0.00;0.00;;;;;9.56;72.30;102596.41;5083774;28;45216;-84
2021/11/18 00:36:39;;;;;;;;;1.00;1.00;;;;;9.50;71.88;102591.84;5083063;28;45501;-83
2021/11/18 00:39:05;;;;;;;;;1.00;1.00;;;;;9.32;71.78;102551.22;5084123;28;45307;-83
2021/11/18 00:41:33;;;;;;;;;2.50;1.00;;;;;9.29;72.08;102545.91;5083966;28;45398;-83
2021/11/18 00:43:58;;;;;;;;;2.25;1.25;;;;;9.23;72.36;102537.84;5083830;28;45265;-84
2021/11/18 00:46:25;;;;;;;;;0.00;0.00;;;;;9.38;72.32;102567.06;5085626;28;45540;-84
2021/11/18 00:48:51;;;;;;;;;5.75;2.75;;;;;9.20;71.99;102537.69;5089384;27;45480;-83
2021/11/18 00:51:19;;;;;;;;;1.00;1.00;;;;;9.43;72.13;102577.66;5087237;28;45471;-83
2021/11/18 00:53:51;;;;;;;;;2.25;2.00;;;;;9.43;72.47;102572.47;5071343;28;45194;-84
2021/11/18 00:56:21;;;;;;;;;1.50;1.50;;;;;9.45;72.41;102572.53;5091434;28;45449;-83
2021/11/18 00:58:47;;;;;;;;;1.00;1.00;;;;;9.44;72.50;102573.38;5089160;28;46283;-84
2021/11/18 01:01:14;;;;;;;;;1.75;0.50;;;;;9.43;72.50;102572.47;5071581;28;45478;-83
2021/11/18 01:03:39;;;;;;;;;0.50;0.50;;;;;9.20;72.35;102545.50;5091174;28;45433;-84
2021/11/18 01:06:05;;;;;;;;;2.00;1.00;;;;;9.06;72.52;102513.69;5089566;28;45266;-84
2021/11/18 01:08:31;;;;;;;;;0.75;0.75;;;;;9.31;72.62;102565.03;5071583;28;45322;-84
2021/11/18 01:11:06;;;;;;;;;1.25;1.25;;;;;9.23;72.34;102562.13;5073018;28;45391;-83
2021/11/18 01:13:33;;;;;;;;;3.50;1.00;;;;;9.10;72.42;102557.19;5089131;28;45425;-82
2021/11/18 01:16:00;;;;;;;;;1.00;1.00;;;;;8.99;72.29;102549.81;5090950;28;45193;-81
2021/11/18 01:18:27;;;;;;;;;1.25;0.75;;;;;9.05;72.64;102569.09;5089182;28;45498;-83
2021/11/18 01:20:53;;;;;;;;;2.50;1.75;;;;;8.98;72.66;102589.59;5079812;27;45514;-83
2021/11/18 01:23:22;;;;;;;;;1.00;1.00;;;;;8.77;72.84;102573.94;5089854;28;45289;-83
2021/11/18 01:25:48;;;;;;;;;0.00;0.00;;;;;8.49;73.00;102525.91;5071468;28;45601;-83
2021/11/18 01:28:14;;;;;;;;;2.50;1.00;;;;;8.68;73.04;102560.53;5088910;28;45375;-84
2021/11/18 01:30:42;;;;;;;;;1.00;1.00;;;;;8.58;73.05;102544.50;5089892;28;45325;-83
2021/11/18 01:33:10;;;;;;;;;0.00;0.00;;;;;8.91;73.04;102600.53;5074715;28;45365;-83
2021/11/18 01:35:36;;;;;;;;;1.00;1.00;;;;;8.83;72.86;102571.63;5084576;28;45295;-83
2021/11/18 01:38:02;;;;;;;;;2.00;2.00;;;;;8.81;72.69;102568.06;5086431;28;47456;-83
2021/11/18 01:40:32;;;;;;;;;1.00;1.00;;;;;8.81;72.99;102581.03;5087252;28;45352;-83
2021/11/18 01:42:58;;;;;;;;;1.75;1.75;;;;;8.83;72.75;102592.41;5068222;28;45335;-83
2021/11/18 01:45:27;;;;;;;;;1.00;1.00;;;;;8.74;72.80;102571.19;5068628;28;45424;-83
2021/11/18 01:47:52;;;;;;;;;0.25;0.25;;;;;8.96;72.50;102613.72;5049411;28;47920;-83
2021/11/18 01:50:21;;;;;;;;;1.00;1.00;;;;;8.79;73.17;102602.56;5079822;28;45216;-83
2021/11/18 01:52:47;;;;;;;;;1.00;1.00;;;;;8.73;73.22;102605.78;5071108;28;45275;-83
2021/11/18 01:55:16;;;;;;;;;3.75;2.25;;;;;8.74;72.87;102613.66;5088788;28;45346;-83
2021/11/18 01:57:43;;;;;;;;;2.25;0.00;;;;;8.85;73.22;102627.09;5086038;28;46183;-83
2021/11/18 02:00:17;;;;;;;;;0.50;0.25;;;;;8.90;72.80;102629.91;5084340;28;45240;-83
2021/11/18 02:02:43;;;;;;;;;1.00;1.00;;;;;8.81;73.02;102607.00;5083843;28;45223;-83
2021/11/18 02:05:12;;;;;;;;;0.75;0.50;;;;;8.70;72.87;102590.94;5087263;28;45236;-83
2021/11/18 02:07:39;;;;;;;;;1.75;1.75;;;;;8.42;73.43;102558.47;5067973;28;47515;-83
2021/11/18 02:10:07;;;;;;;;;0.75;0.75;;;;;8.41;72.83;102563.56;5084943;28;45342;-83
2021/11/18 02:12:32;;;;;;;;;2.00;2.00;;;;;8.70;72.69;102611.69;5086946;28;45460;-84
2021/11/18 02:14:58;;;;;;;;;1.50;1.50;;;;;8.76;73.04;102620.59;5085056;28;46217;-83
2021/11/18 02:17:27;;;;;;;;;2.00;0.25;;;;;8.53;72.79;102584.94;5084691;28;46675;-83
2021/11/18 02:20:03;;;;;;;;;1.00;1.00;;;;;8.70;72.94;102611.69;5064499;28;45471;-83
2021/11/18 02:22:31;;;;;;;;;2.00;2.00;;;;;8.65;72.84;102602.81;5073498;28;45422;-83
2021/11/18 02:25:01;;;;;;;;;1.00;0.50;;;;;8.74;72.97;102618.84;5084692;28;45513;-83
2021/11/18 02:27:29;;;;;;;;;1.00;1.00;;;;;8.72;73.14;102622.16;5067322;28;45423;-83
2021/11/18 02:29:57;;;;;;;;;1.75;1.50;;;;;8.58;73.25;102595.56;5084935;28;45468;-83
2021/11/18 02:32:27;;;;;;;;;3.25;3.00;;;;;8.68;72.88;102617.66;5066410;28;45441;-83
2021/11/18 02:35:00;;;;;;;;;1.00;1.00;;;;;8.52;73.17;102583.16;5085038;28;45380;-83
2021/11/18 02:37:26;;;;;;;;;2.00;2.00;;;;;8.76;73.20;102631.00;5083148;28;46181;-83
2021/11/18 02:39:53;;;;;;;;;3.75;2.00;;;;;8.70;73.29;102631.59;5085686;28;45325;-83
2021/11/18 02:42:20;;;;;;;;;1.00;1.00;;;;;8.36;73.18;102581.53;5077835;28;45347;-83
2021/11/18 02:44:46;;;;;;;;;1.50;1.50;;;;;8.32;72.70;102575.31;5085182;28;45395;-83
2021/11/18 02:47:13;;;;;;;;;1.00;1.00;;;;;8.49;72.89;102601.19;5085278;28;45357;-83
2021/11/18 02:49:45;;;;;;;;;2.00;2.00;;;;;8.57;73.50;102630.09;5083966;28;45248;-83
2021/11/18 02:52:12;;;;;;;;;1.00;1.00;;;;;8.46;73.12;102601.91;5085198;28;45321;-83
2021/11/18 02:54:39;;;;;;;;;1.00;1.00;;;;;8.44;73.07;102605.25;5086305;28;45486;-83
2021/11/18 02:57:04;;;;;;;;;2.00;0.75;;;;;8.39;73.07;102619.72;5083881;28;45279;-83
2021/11/18 02:59:30;;;;;;;;;2.00;0.00;;;;;7.60;73.44;102507.03;5083730;28;45299;-83
2021/11/18 03:01:56;;;;;;;;;2.00;2.00;;;;;8.31;72.62;102633.22;5084711;28;45472;-83
2021/11/18 03:04:21;;;;;;;;;2.25;2.25;;;;;8.02;73.16;102593.75;5066146;28;45303;-83
2021/11/18 03:06:46;;;;;;;;;2.25;1.75;;;;;7.75;73.55;102544.03;5084617;28;45428;-83
2021/11/18 03:09:12;;;;;;;;;1.00;1.00;;;;;8.23;73.46;102622.47;5083608;28;45275;-82
2021/11/18 03:11:37;;;;;;;;;3.00;1.25;;;;;8.33;73.46;102651.47;5083602;28;45665;-83
2021/11/18 03:14:04;;;;;;;;;1.25;1.25;;;;;7.96;73.21;102614.19;5066682;28;45303;-83
2021/11/18 03:16:30;;;;;;;;;4.25;3.75;;;;;8.05;73.13;102632.81;5084589;28;45448;-83
2021/11/18 03:18:55;;;;;;;;;1.75;1.75;;;;;8.14;73.52;102644.50;5082130;28;45327;-83
2021/11/18 03:21:25;;;;;;;;;4.25;3.00;;;;;8.09;73.76;102652.91;5084545;28;45303;-83
2021/11/18 03:23:51;;;;;;;;;2.25;1.00;;;;;8.10;73.62;102643.44;5084880;28;45279;-83
2021/11/18 03:26:22;;;;;;;;;1.25;1.25;;;;;7.88;73.47;102611.25;5081527;27;45245;-83
2021/11/18 03:28:47;;;;;;;;;4.25;2.00;;;;;7.91;73.69;102606.22;5071092;27;45441;-83
2021/11/18 03:31:14;;;;;;;;;3.00;3.00;;;;;8.15;73.10;102656.63;5073117;28;45529;-83
2021/11/18 03:33:48;;;;;;;;;4.50;3.00;;;;;7.99;73.65;102629.91;5083625;28;45284;-83
2021/11/18 03:36:15;;;;;;;;;2.00;2.00;;;;;7.90;73.48;102617.38;5085087;28;46930;-83
2021/11/18 03:38:41;;;;;;;;;2.00;2.00;;;;;8.07;73.83;102644.19;5058553;28;45344;-83
2021/11/18 03:41:08;;;;;;;;;3.75;0.00;;;;;7.64;73.20;102559.03;5084037;28;45243;-83
2021/11/18 03:43:38;;;;;;;;;1.00;1.00;;;;;8.03;73.70;102616.31;5067480;28;45614;-83
2021/11/18 03:46:05;;;;;;;;;0.75;0.00;;;;;8.12;73.21;102626.25;5083039;28;45276;-83
2021/11/18 03:48:33;;;;;;;;;2.75;0.75;;;;;8.16;73.09;102635.06;5082571;28;45216;-84
2021/11/18 03:51:01;;;;;;;;;1.00;0.00;;;;;8.19;73.33;102649.09;5084789;28;45444;-83
2021/11/18 03:53:27;;;;;;;;;1.00;1.00;;;;;8.17;73.61;102661.06;5083909;28;45299;-83
2021/11/18 03:55:53;;;;;;;;;2.25;1.25;;;;;7.85;73.47;102606.78;5082639;28;46218;-83
2021/11/18 03:58:19;;;;;;;;;1.50;1.50;;;;;8.11;73.58;102663.34;5087990;27;45235;-82
2021/11/18 04:00:45;;;;;;;;;2.25;2.25;;;;;8.07;73.45;102657.16;5083730;28;45449;-83
2021/11/18 04:03:13;;;;;;;;;1.00;0.00;;;;;7.89;73.74;102632.88;5082291;28;45248;-83
2021/11/18 04:05:40;;;;;;;;;2.75;2.00;;;;;8.06;73.53;102662.25;5083136;28;46147;-83
2021/11/18 04:08:07;;;;;;;;;2.00;2.00;;;;;7.83;73.52;102616.19;5083912;28;45397;-83
2021/11/18 04:10:35;;;;;;;;;2.00;1.00;;;;;7.71;73.66;102602.59;5082737;28;45363;-83
2021/11/18 04:13:00;;;;;;;;;4.00;3.00;;;;;7.80;73.18;102621.22;5066000;28;45301;-83
2021/11/18 04:15:27;;;;;;;;;1.00;1.00;;;;;7.96;73.32;102647.91;5084647;28;45493;-83
2021/11/18 04:17:53;;;;;;;;;2.00;2.00;;;;;8.01;73.64;102667.22;5082692;28;45964;-83
2021/11/18 04:20:20;;;;;;;;;1.00;1.00;;;;;8.09;73.66;102677.97;5081914;28;45385;-83
2021/11/18 04:22:48;;;;;;;;;3.00;3.00;;;;;7.96;73.13;102666.97;5066810;28;45379;-83
2021/11/18 04:25:17;;;;;;;;;3.00;2.00;;;;;7.97;73.69;102691.22;5072261;28;45279;-83
2021/11/18 04:27:42;;;;;;;;;4.75;2.00;;;;;7.77;73.59;102667.75;5063264;28;45600;-83
2021/11/18 04:30:13;;;;;;;;;1.00;1.00;;;;;7.64;73.31;102642.00;5082441;28;45490;-83
2021/11/18 04:32:39;;;;;;;;;4.00;2.25;;;;;7.82;73.65;102673.16;5076329;28;45331;-83
2021/11/18 04:35:06;;;;;;;;;0.25;0.25;;;;;7.81;73.80;102676.56;5082063;28;45319;-83
2021/11/18 04:37:32;;;;;;;;;1.50;1.50;;;;;7.77;73.47;102670.34;5085936;28;45182;-83
2021/11/18 04:39:58;;;;;;;;;2.50;2.50;;;;;7.82;73.42;102689.63;5083059;28;45441;-83
2021/11/18 04:42:24;;;;;;;;;0.25;0.25;;;;;7.78;73.55;102682.47;5083308;28;45644;-83
2021/11/18 04:44:50;;;;;;;;;0.50;0.50;;;;;7.86;73.36;102703.63;5083419;28;45336;-83
2021/11/18 04:47:15;;;;;;;;;1.50;1.00;;;;;7.85;73.96;102707.91;5082434;28;45295;-83
2021/11/18 04:49:44;;;;;;;;;2.00;2.00;;;;;7.91;73.95;102698.69;5083279;28;45697;-83
2021/11/18 04:52:11;;;;;;;;;0.00;0.00;;;;;7.88;73.66;102708.88;5077421;28;45602;-83
2021/11/18 04:54:36;;;;;;;;;3.25;2.00;;;;;7.66;73.71;102669.75;5081642;28;46251;-83
2021/11/18 04:57:03;;;;;;;;;1.00;1.00;;;;;7.92;73.34;102716.91;5084643;28;45396;-83
2021/11/18 04:59:30;;;;;;;;;1.00;1.00;;;;;7.66;73.56;102671.50;5082094;28;45252;-83
2021/11/18 05:01:55;;;;;;;;;1.75;1.00;;;;;7.80;73.54;102691.22;5069862;28;45472;-83
2021/11/18 05:04:20;;;;;;;;;1.75;1.75;;;;;7.85;72.99;102689.75;5081858;28;45465;-83
2021/11/18 05:06:46;;;;;;;;;7.00;2.00;;;;;7.94;73.51;102707.53;5079644;28;45436;-83
2021/11/18 05:09:12;;;;;;;;;1.00;1.00;;;;;7.92;73.65;102693.56;5080312;28;45502;-83
2021/11/18 05:11:39;;;;;;;;;2.75;2.00;;;;;8.05;73.08;102715.81;5083165;28;45418;-83
2021/11/18 05:14:05;;;;;;;;;2.00;2.00;;;;;8.04;73.36;102706.28;5081454;28;46155;-83
2021/11/18 05:16:31;;;;;;;;;1.00;1.00;;;;;7.83;72.83;102670.66;5063335;28;45755;-83
2021/11/18 05:18:57;;;;;;;;;2.00;2.00;;;;;7.91;73.61;102672.75;5083986;28;45275;-83
2021/11/18 05:21:25;;;;;;;;;1.25;1.25;;;;;8.14;73.04;102715.41;5060828;28;45676;-83
2021/11/18 05:23:52;;;;;;;;;1.75;1.00;;;;;8.08;73.20;102708.22;5078071;28;45263;-83
2021/11/18 05:26:19;;;;;;;;;2.00;2.00;;;;;7.97;72.68;102686.03;5081811;28;45327;-83
2021/11/18 05:28:45;;;;;;;;;2.75;2.00;;;;;8.00;73.30;102688.78;5069903;28;45306;-83
2021/11/18 05:31:13;;;;;;;;;1.50;1.50;;;;;8.08;73.24;102699.53;5064070;28;45543;-84
2021/11/18 05:33:39;;;;;;;;;2.25;2.25;;;;;8.08;73.01;102700.41;5083115;28;48563;-83
2021/11/18 05:36:05;;;;;;;;;2.50;1.00;;;;;8.03;72.75;102693.22;5080913;27;45428;-83
2021/11/18 05:38:30;;;;;;;;;2.00;0.00;;;;;8.18;72.82;102722.53;5080890;28;45310;-82
2021/11/18 05:40:56;;;;;;;;;0.50;0.00;;;;;7.96;73.05;102692.91;5067335;28;45366;-83
2021/11/18 05:43:23;;;;;;;;;2.50;1.00;;;;;8.03;73.05;102701.91;5081527;28;47618;-83
2021/11/18 05:45:48;;;;;;;;;0.25;0.25;;;;;8.18;73.48;102724.25;5083609;28;45236;-83
2021/11/18 05:48:18;;;;;;;;;4.00;1.75;;;;;8.20;73.25;102725.19;5066813;28;45608;-83
2021/11/18 05:50:49;;;;;;;;;0.00;0.00;;;;;8.24;73.25;102729.75;5087427;28;45442;-82
2021/11/18 05:53:20;;;;;;;;;2.75;1.00;;;;;8.28;73.17;102747.25;5082851;28;46116;-82
2021/11/18 05:55:46;;;;;;;;;1.50;1.00;;;;;8.30;73.24;102724.84;5084851;28;45241;-83
2021/11/18 05:58:12;;;;;;;;;2.25;1.00;;;;;8.21;73.07;102724.41;5085255;28;45338;-82
2021/11/18 06:00:37;;;;;;;;;2.50;2.00;;;;;8.10;72.83;102706.59;5087545;27;45477;-78
2021/11/18 06:03:03;;;;;;;;;1.25;1.25;;;;;8.21;72.61;102720.09;5082798;28;47046;-78
2021/11/18 06:05:29;;;;;;;;;1.00;1.00;;;;;8.17;72.54;102728.53;5084592;28;45290;-78
2021/11/18 06:07:56;;;;;;;;;2.00;1.00;;;;;8.16;72.63;102720.66;5076575;28;45229;-78
2021/11/18 06:10:24;;;;;;;;;1.25;1.25;;;;;8.31;72.57;102747.41;5065998;28;45259;-78
2021/11/18 06:12:50;;;;;;;;;0.00;0.00;;;;;8.14;72.60;102717.13;5083590;28;46416;-78
2021/11/18 06:15:16;;;;;;;;;1.50;1.50;;;;;8.12;72.65;102724.84;5083993;28;45391;-78
2021/11/18 06:17:41;;;;;;;;;0.25;0.25;;;;;8.09;72.24;102740.25;5066069;28;45421;-79
2021/11/18 06:20:09;;;;;;;;;4.75;4.75;;;;;7.96;72.19;102747.38;5084371;28;45375;-81
2021/11/18 06:22:35;;;;;;;;;2.75;2.50;;;;;7.70;72.78;102727.88;5079956;28;47221;-79
2021/11/18 06:25:01;;;;;;;;;1.50;1.00;;;;;7.55;72.18;102709.78;5083880;28;45165;-78
2021/11/18 06:27:27;;;;;;;;;1.50;1.50;;;;;7.67;72.89;102751.03;5067010;28;45237;-78
2021/11/18 06:29:53;;;;;;;;;1.25;1.25;;;;;7.62;72.33;102732.63;5084941;28;45445;-76
2021/11/18 06:32:19;;;;;;;;;1.75;1.75;;;;;7.72;72.12;102762.56;5083484;28;45394;-77
2021/11/18 06:34:44;;;;;;;;;1.50;1.50;;;;;7.57;72.20;102750.53;5082142;28;45436;-75
2021/11/18 06:37:11;;;;;;;;;1.50;1.50;;;;;7.57;72.92;102766.09;5080939;28;45338;-76
2021/11/18 06:39:38;;;;;;;;;3.00;3.00;;;;;7.57;73.03;102766.09;5082811;28;45571;-76
2021/11/18 06:42:06;;;;;;;;;2.75;2.00;;;;;7.57;73.03;102760.03;5082023;28;46997;-76
2021/11/18 06:44:32;;;;;;;;;1.00;1.00;;;;;7.63;72.50;102765.56;5062407;28;45434;-76
2021/11/18 06:46:58;;;;;;;;;2.00;1.00;;;;;7.67;73.12;102767.50;5064223;28;45396;-77
2021/11/18 06:49:23;;;;;;;;;3.00;1.00;;;;;7.63;72.64;102746.50;5082913;28;45529;-77
2021/11/18 06:51:48;;;;;;;;;5.50;1.00;;;;;7.63;72.57;102734.44;5082495;28;46072;-77
2021/11/18 06:54:16;;;;;;;;;1.00;1.00;;;;;7.79;72.42;102759.47;5080840;28;45408;-78
2021/11/18 06:56:42;;;;;;;;;3.50;2.25;;;;;7.82;73.17;102763.91;5083537;28;45485;-77
2021/11/18 06:59:07;;;;;;;;;2.75;1.00;;;;;7.68;72.69;102727.78;5082937;28;45420;-78
2021/11/18 07:01:34;;;;;;;;;1.75;1.75;;;;;7.94;72.38;102780.13;5081057;28;45394;-79
2021/11/18 07:04:00;;;;;;;;;2.00;2.00;;;;;7.92;72.26;102766.19;5083211;28;45398;-77
2021/11/18 07:06:26;;;;;;;;;1.75;1.50;;;;;7.98;72.30;102776.00;5083253;28;45694;-82
2021/11/18 07:08:53;;;;;;;;;3.75;2.00;;;;;8.01;72.50;102783.94;5068903;28;45360;-79
2021/11/18 07:11:22;;;;;;;;;3.50;2.25;;;;;7.94;72.08;102784.44;5073901;28;45442;-78
2021/11/18 07:13:48;;;;;;;;;2.00;2.00;;;;;7.90;72.49;102782.47;5082291;28;45300;-79
2021/11/18 07:16:17;;;;;;;;;1.00;1.00;;;;;7.88;72.28;102794.47;5082394;28;45313;-79
2021/11/18 07:18:43;;;;;;;;;3.00;2.00;;;;;7.70;72.25;102777.13;5082594;28;44772;-78
2021/11/18 07:21:09;;;;;;;;;3.00;3.00;;;;;7.75;72.44;102773.06;5082659;28;46153;-79
2021/11/18 07:23:36;;;;;;;;;1.00;1.00;;;;;7.75;72.55;102770.47;5080594;28;45338;-79
2021/11/18 07:26:05;;;;;;;;;3.00;3.00;;;;;7.56;72.30;102742.66;5079997;28;45481;-78
2021/11/18 07:28:33;;;;;;;;;0.50;0.50;;;;;7.57;72.87;102740.16;5083356;28;45409;-78
2021/11/18 07:31:00;;;;;;;;;1.00;1.00;;;;;7.81;72.56;102760.44;5083069;28;45471;-80
2021/11/18 07:33:26;;;;;;;;;2.00;1.00;;;;;7.89;72.66;102767.72;5083960;28;45454;-84
2021/11/18 07:35:53;;;;;;;;;0.00;0.00;;;;;7.79;72.50;102751.69;5082664;28;45454;-80
2021/11/18 07:38:21;;;;;;;;;2.00;1.00;;;;;7.96;72.38;102770.72;5082186;28;45299;-79
2021/11/18 07:40:47;;;;;;;;;0.25;0.25;;;;;8.09;71.97;102779.16;5064943;28;47425;-78
2021/11/18 07:43:22;;;;;;;;;0.50;0.50;;;;;7.99;71.99;102749.22;5062876;28;45892;-79
2021/11/18 07:45:48;;;;;;;;;2.50;1.00;;;;;7.95;72.19;102729.13;5062873;28;46131;-79
2021/11/18 07:48:14;;;;;;;;;1.50;1.00;;;;;8.14;72.19;102756.91;5082782;28;45346;-80
2021/11/18 07:50:39;;;;;;;;;1.25;0.00;;;;;8.24;71.88;102753.09;5082592;28;45370;-81
2021/11/18 07:53:05;;;;;;;;;2.00;2.00;;;;;8.39;71.55;102778.03;5082348;28;45459;-83
2021/11/18 07:55:31;;;;;;;;;2.00;2.00;;;;;8.23;71.79;102754.78;5073767;28;45616;-80
2021/11/18 07:57:57;;;;;;;;;3.50;2.00;;;;;8.10;71.15;102719.56;5083228;28;45300;-82
2021/11/18 08:00:24;;;;;;;;;3.50;2.50;;;;;8.45;71.56;102775.72;5063622;28;46138;-84
2021/11/18 08:02:49;;;;;;;;;4.00;2.00;;;;;8.30;71.09;102766.38;5077279;28;46383;-88
2021/11/18 08:05:16;;;;;;;;;3.25;2.25;;;;;8.45;71.15;102799.09;5074732;28;45271;-84
2021/11/18 08:07:42;;;;;;;;;1.50;1.50;;;;;8.09;70.55;102741.09;5076399;28;45291;-81
2021/11/18 08:10:08;;;;;;;;;4.00;2.00;;;;;8.41;71.04;102794.56;5079169;28;45278;-81
2021/11/18 08:12:36;;;;;;;;;3.00;2.50;;;;;8.37;71.50;102789.22;5083024;28;45350;-82
2021/11/18 08:15:07;;;;;;;;;4.00;4.00;;;;;8.31;71.00;102767.25;5082967;28;45418;-85
2021/11/18 08:17:32;;;;;;;;;2.50;2.25;;;;;8.39;70.75;102767.66;5083835;28;45575;-84
2021/11/18 08:19:58;;;;;;;;;1.25;1.00;;;;;8.48;71.08;102787.19;5081903;28;45363;-84
2021/11/18 08:22:23;;;;;;;;;1.00;1.00;;;;;8.40;71.33;102754.75;5080743;28;45472;-80
2021/11/18 08:24:48;;;;;;;;;3.25;2.00;;;;;8.66;70.87;102788.03;5079487;28;45443;-80
2021/11/18 08:27:14;;;;;;;;;1.50;1.50;;;;;8.79;71.04;102800.81;5082997;28;45493;-80
2021/11/18 08:29:40;;;;;;;;;3.00;2.00;;;;;8.87;71.22;102807.31;5081191;28;45459;-79
2021/11/18 08:32:06;;;;;;;;;2.00;1.25;;;;;8.94;70.87;102792.03;5057458;28;45440;-77
2021/11/18 08:34:32;;;;;;;;;1.75;1.00;;;;;9.06;71.10;102791.69;5081058;28;45454;-79
2021/11/18 08:36:57;;;;;;;;;1.75;1.75;;;;;9.15;70.38;102786.06;5067100;28;45377;-78
2021/11/18 08:39:25;;;;;;;;;3.00;3.00;;;;;9.16;70.55;102778.31;5074662;28;46428;-84
2021/11/18 08:41:54;;;;;;;;;2.25;1.00;;;;;9.43;70.26;102806.44;5066984;28;45460;-79
2021/11/18 08:44:20;;;;;;;;;5.00;2.00;;;;;9.57;70.32;102809.69;5064861;28;45374;-80
2021/11/18 08:46:46;;;;;;;;;1.75;1.75;;;;;9.62;70.39;102808.19;5063289;28;45521;-80
2021/11/18 08:49:13;;;;;;;;;1.25;1.25;;;;;9.55;69.61;102782.72;5080556;28;46148;-78
2021/11/18 08:51:38;;;;;;;;;5.00;2.00;;;;;9.67;69.48;102802.28;5072404;28;45461;-78
2021/11/18 08:54:11;;;;;;;;;4.50;3.00;;;;;9.75;69.46;102809.66;5063091;27;45348;-79
2021/11/18 08:56:36;;;;;;;;;5.00;3.25;;;;;9.91;69.80;102822.44;5058852;28;45334;-78
2021/11/18 08:59:04;;;;;;;;;5.00;4.50;;;;;9.79;69.67;102800.25;5074802;28;45526;-84
2021/11/18 09:01:39;;;;;;;;;7.75;5.00;;;;;9.91;69.54;102814.63;5050887;28;45404;-84
2021/11/18 09:04:08;;;;;;;;;2.75;2.75;;;;;9.75;69.53;102769.75;5080081;28;45397;-79
2021/11/18 09:06:35;;;;;;;;;4.00;1.25;;;;;9.84;69.25;102790.97;5076198;28;45469;-81
2021/11/18 09:09:00;;;;;;;;;0.00;0.00;;;;;10.11;69.33;102815.53;5081027;28;46428;-81
2021/11/18 09:11:28;;;;;;;;;6.00;2.00;;;;;9.96;69.11;102787.13;5084879;28;45410;-81
2021/11/18 09:13:54;;;;;;;;;4.00;4.00;;;;;10.13;69.00;102825.19;5083980;28;45291;-76
2021/11/18 09:16:21;;;;;;;;;3.50;3.00;;;;;10.13;68.90;102825.19;5084266;28;45480;-84
2021/11/18 09:18:47;;;;;;;;;2.75;2.00;;;;;10.16;68.59;102811.41;5083997;28;45306;-81
2021/11/18 09:21:17;;;;;;;;;2.25;1.50;;;;;10.21;68.81;102812.50;5084707;28;45359;-79
2021/11/18 09:23:54;;;;;;;;;3.75;3.75;;;;;10.27;68.89;102807.56;5086190;27;45385;-78
2021/11/18 09:26:20;;;;;;;;;3.25;2.00;;;;;10.38;68.64;102812.31;5077755;27;45477;-81
2021/11/18 09:28:46;;;;;;;;;7.00;5.75;;;;;10.41;68.42;102816.81;5082827;28;45319;-79
2021/11/18 09:31:14;;;;;;;;;2.25;2.25;;;;;10.54;68.01;102824.34;5081752;28;45930;-78
2021/11/18 09:33:41;;;;;;;;;5.25;4.00;;;;;10.62;68.28;102828.16;5076958;28;45433;-83
2021/11/18 09:36:08;;;;;;;;;6.25;5.00;;;;;10.37;68.33;102810.56;5083723;28;45533;-80
2021/11/18 09:38:37;;;;;;;;;2.50;2.50;;;;;10.48;67.86;102842.31;5079020;28;47260;-79
2021/11/18 09:41:18;;;;;;;;;7.25;6.00;;;;;10.37;67.71;102834.00;5082339;28;45603;-80
2021/11/18 09:44:19;;;;;;;;;3.25;3.25;;;;;10.33;67.52;102819.06;5067531;28;45202;-81
2021/11/18 09:47:05;;;;;;;;;7.25;5.75;;;;;10.43;67.66;102828.16;5075427;28;45504;-81
2021/11/18 09:50:08;;;;;;;;;6.00;5.00;;;;;10.47;67.84;102830.09;5080544;28;47333;-82
2021/11/18 09:52:51;;;;;;;;;4.50;4.00;;;;;10.51;67.58;102834.63;5082682;28;45459;-80
2021/11/18 09:55:19;;;;;;;;;3.00;3.00;;;;;10.53;67.50;102838.16;5081672;28;45411;-81
2021/11/18 09:58:11;;;;;;;;;3.50;3.00;;;;;10.43;67.56;102830.75;5075098;28;45692;-81
2021/11/18 10:01:19;;;;;;;;;3.50;2.25;;;;;10.31;67.73;102824.22;5077190;28;45576;-79
2021/11/18 10:04:06;;;;;;;;;3.25;3.00;;;;;10.38;67.83;102839.25;5063743;28;45582;-79
2021/11/18 10:06:38;;;;;;;;;5.50;4.00;;;;;10.36;67.81;102847.84;5061835;28;45415;-80
2021/11/18 10:09:32;;;;;;;;;4.75;3.75;;;;;10.31;67.89;102845.03;5083806;28;45417;-80
2021/11/18 10:12:32;;;;;;;;;6.75;3.75;;;;;10.36;67.84;102853.91;5083469;28;46454;-79
2021/11/18 10:15:17;;;;;;;;;7.00;6.50;;;;;10.32;68.04;102856.34;5083684;28;45406;-79
2021/11/18 10:18:07;;;;;;;;;2.50;2.50;;;;;10.23;67.89;102862.03;5079809;28;45455;-81
2021/11/18 10:20:38;;;;;;;;;9.25;6.50;;;;;10.13;68.12;102869.44;5069205;28;45315;-79
2021/11/18 10:23:08;;;;;;;;;4.00;4.00;;;;;10.09;67.96;102844.09;5076357;28;45337;-83
2021/11/18 10:26:00;;;;;;;;;8.50;4.25;;;;;10.27;68.01;102862.22;5080877;28;45503;-79
2021/11/18 10:28:30;;;;;;;;;3.00;3.00;;;;;10.32;67.85;102870.22;5080365;28;45577;-80
2021/11/18 10:31:15;;;;;;;;;5.50;4.00;;;;;10.33;67.60;102868.53;5083391;28;45410;-78
2021/11/18 10:34:08;;;;;;;;;6.50;5.00;;;;;10.42;67.44;102871.56;5063324;28;47231;-78
2021/11/18 10:37:06;;;;;;;;;3.00;3.00;;;;;10.45;67.14;102874.31;5071942;28;45350;-79
2021/11/18 10:39:53;;;;;;;;;5.75;3.00;;;;;10.38;67.81;102862.69;5055122;28;45335;-81
2021/11/18 10:42:18;;;;;;;;;5.50;3.00;;;;;10.56;67.35;102877.38;5074600;28;45284;-77
2021/11/18 10:45:29;;;;;;;;;1.00;1.00;;;;;10.62;66.86;102874.13;5082567;28;45277;-78
2021/11/18 10:48:02;;;;;;;;;3.75;2.50;;;;;10.63;66.86;102855.97;5049882;28;45344;-80
2021/11/18 10:50:42;;;;;;;;;2.75;2.75;;;;;10.80;66.85;102867.91;5059925;28;45505;-78
2021/11/18 10:53:52;;;;;;;;;2.00;1.25;;;;;10.69;66.49;102857.94;5069464;28;45653;-78
2021/11/18 10:56:30;;;;;;;;;2.00;2.00;;;;;10.73;66.53;102870.28;4998760;28;45908;-78
2021/11/18 10:59:11;;;;;;;;;2.00;2.00;;;;;10.73;66.56;102870.28;5007890;28;45409;-81
2021/11/18 11:01:46;;;;;;;;;1.00;1.00;;;;;10.59;66.06;102835.84;5033400;28;46871;-77
2021/11/18 11:04:42;;;;;;;;;1.00;1.00;;;;;10.89;65.91;102869.22;5064860;28;45514;-78
2021/11/18 11:07:09;;;;;;;;;1.75;1.75;;;;;10.65;66.02;102801.34;5063024;28;45438;-78
2021/11/18 11:09:41;;;;;;;;;4.00;4.00;;;;;11.16;65.82;102870.28;5073370;28;45998;-85
2021/11/18 11:12:24;;;;;;;;;2.50;2.50;;;;;11.25;65.60;102864.56;5065540;28;45418;-81
2021/11/18 11:15:38;;;;;;;;;2.00;1.00;;;;;11.32;65.08;102868.28;5075079;28;45621;-85
2021/11/18 11:18:11;;;;;;;;;1.00;1.00;;;;;11.39;65.29;102860.75;5064217;28;48003;-80
2021/11/18 11:21:00;;;;;;;;;5.00;1.25;;;;;11.45;65.22;102867.06;5059789;28;45472;-82
2021/11/18 11:24:03;;;;;;;;;0.00;0.00;;;;;11.55;64.28;102858.78;5081239;27;45421;-85
2021/11/18 11:26:55;;;;;;;;;0.50;0.00;;;;;11.64;64.14;102846.06;5077669;28;45571;-80
2021/11/18 11:29:32;;;;;;;;;2.75;1.75;;;;;11.79;64.27;102845.75;5076229;28;45559;-80
2021/11/18 11:32:22;;;;;;;;;0.75;0.75;;;;;11.95;63.75;102854.16;5081281;28;45481;-83
2021/11/18 11:35:01;;;;;;;;;1.00;1.00;;;;;12.16;63.97;102851.47;5082436;28;45314;-83
2021/11/18 11:37:55;;;;;;;;;1.00;0.00;;;;;12.36;63.15;102851.28;5082099;28;45423;-83
2021/11/18 11:40:59;;;;;;;;;1.00;1.00;;;;;12.45;63.06;102845.50;5082938;28;45454;-83
2021/11/18 11:43:32;;;;;;;;;2.00;0.00;;;;;12.39;63.15;102832.22;5030903;28;45549;-83